createdAt,value
2018-10-12T00:01:16.309Z,10.32
2018-10-12T00:03:44.616Z,13.67
2018-10-12T00:06:13.324Z,13.37
2018-10-12T00:08:41.636Z,12.73
2018-10-12T00:11:09.967Z,11.63
2018-10-12T00:13:39.047Z,12.70
2018-10-12T00:16:07.260Z,12.70
2018-10-12T00:18:35.506Z,13.80
2018-10-12T00:21:04.004Z,12.40
2018-10-12T00:23:32.241Z,13.30
2018-10-12T00:26:00.622Z,13.93
2018-10-12T00:28:28.781Z,13.77
2018-10-12T00:30:56.992Z,11.43
2018-10-12T00:33:25.201Z,12.07
2018-10-12T00:35:53.395Z,13.10
2018-10-12T00:38:21.575Z,12.20
2018-10-12T00:40:49.922Z,11.50
2018-10-12T00:43:18.487Z,12.30
2018-10-12T00:45:46.685Z,11.30
2018-10-12T00:48:14.843Z,12.93
2018-10-12T00:50:43.037Z,12.10
2018-10-12T00:53:11.420Z,11.30
2018-10-12T00:55:39.568Z,11.45
2018-10-12T00:58:08.404Z,10.87
2018-10-12T01:00:36.679Z,11.33
2018-10-12T01:03:04.883Z,12.60
2018-10-12T01:05:33.021Z,10.43
2018-10-12T01:08:01.336Z,12.40
2018-10-12T01:10:29.476Z,11.07
2018-10-12T01:12:57.736Z,10.97
2018-10-12T01:15:25.883Z,10.77
2018-10-12T01:17:54.068Z,11.00
2018-10-12T01:20:22.305Z,11.23
2018-10-12T01:22:50.507Z,10.00
2018-10-12T01:25:18.755Z,12.80
2018-10-12T01:27:46.988Z,11.70
2018-10-12T01:30:15.239Z,13.70
2018-10-12T01:32:48.808Z,12.77
2018-10-12T01:35:17.016Z,10.70
2018-10-12T01:37:45.218Z,11.65
2018-10-12T01:40:13.467Z,11.40
2018-10-12T01:42:41.708Z,11.00
2018-10-12T01:45:09.895Z,12.50
2018-10-12T01:47:38.171Z,10.70
2018-10-12T01:50:06.455Z,9.93
2018-10-12T01:52:34.775Z,11.53
2018-10-12T01:55:02.959Z,12.07
2018-10-12T01:57:31.190Z,9.27
2018-10-12T01:59:59.387Z,8.80
2018-10-12T02:02:27.598Z,10.03
2018-10-12T02:04:55.831Z,10.37
2018-10-12T02:07:24.033Z,9.85
2018-10-12T02:09:52.350Z,10.83
2018-10-12T02:12:20.519Z,8.83
2018-10-12T02:14:48.942Z,8.83
2018-10-12T02:17:17.212Z,8.75
2018-10-12T02:19:45.416Z,8.33
2018-10-12T02:22:14.793Z,8.93
2018-10-12T02:24:42.964Z,9.30
2018-10-12T02:27:11.118Z,10.47
2018-10-12T02:29:39.270Z,11.80
2018-10-12T02:32:07.435Z,10.87
2018-10-12T02:34:35.644Z,9.90
2018-10-12T02:37:03.927Z,10.40
2018-10-12T02:39:32.250Z,10.63
2018-10-12T02:42:00.498Z,11.70
2018-10-12T02:44:28.705Z,12.37
2018-10-12T02:46:56.883Z,14.67
2018-10-12T02:49:25.087Z,13.70
2018-10-12T02:51:53.261Z,12.33
2018-10-12T02:54:21.476Z,12.70
2018-10-12T02:56:49.716Z,11.73
2018-10-12T02:59:17.940Z,12.83
2018-10-12T03:01:46.408Z,13.60
2018-10-12T03:04:14.583Z,13.10
2018-10-12T03:06:42.820Z,11.70
2018-10-12T03:09:11.891Z,11.47
2018-10-12T03:11:40.315Z,10.37
2018-10-12T03:14:08.460Z,10.37
2018-10-12T03:16:36.636Z,10.87
2018-10-12T03:19:04.853Z,11.57
2018-10-12T03:21:33.268Z,9.95
2018-10-12T03:24:01.741Z,10.10
2018-10-12T03:26:30.011Z,11.03
2018-10-12T03:28:58.277Z,11.00
2018-10-12T03:31:26.462Z,8.03
2018-10-12T03:33:54.780Z,11.60
2018-10-12T03:36:22.984Z,9.90
2018-10-12T03:38:51.269Z,10.97
2018-10-12T03:41:19.421Z,10.17
2018-10-12T03:43:48.296Z,10.80
2018-10-12T03:46:16.555Z,10.50
2018-10-12T03:48:44.709Z,10.97
2018-10-12T03:51:12.932Z,10.73
2018-10-12T03:53:41.092Z,10.70
2018-10-12T03:56:10.209Z,10.33
2018-10-12T03:58:38.347Z,10.83
2018-10-12T04:01:06.536Z,10.63
2018-10-12T04:03:34.815Z,9.53
2018-10-12T04:06:03.029Z,11.53
2018-10-12T04:08:31.170Z,11.60
2018-10-12T04:10:59.608Z,11.53
2018-10-12T04:13:27.779Z,12.60
2018-10-12T04:15:55.920Z,12.77
2018-10-12T04:18:24.141Z,12.73
2018-10-12T04:20:52.292Z,13.07
2018-10-12T04:23:20.528Z,13.07
2018-10-12T04:25:48.700Z,13.60
2018-10-12T04:28:16.884Z,14.45
2018-10-12T04:30:45.108Z,12.23
2018-10-12T04:33:13.452Z,12.67
2018-10-12T04:35:41.880Z,12.33
2018-10-12T04:38:10.333Z,11.10
2018-10-12T04:41:26.537Z,11.65
2018-10-12T04:43:56.249Z,11.45
2018-10-12T04:46:29.760Z,11.40
2018-10-12T04:48:57.972Z,11.65
2018-10-12T04:51:35.305Z,13.00
2018-10-12T04:54:03.455Z,9.70
2018-10-12T04:56:31.632Z,10.47
2018-10-12T04:58:59.815Z,10.20
2018-10-12T05:01:27.986Z,8.90
2018-10-12T05:03:56.240Z,9.53
2018-10-12T05:06:24.459Z,8.57
2018-10-12T05:08:52.688Z,10.83
2018-10-12T05:11:20.874Z,7.85
2018-10-12T05:13:49.061Z,8.17
2018-10-12T05:16:17.255Z,9.13
2018-10-12T05:18:45.417Z,8.63
2018-10-12T05:21:13.592Z,8.63
2018-10-12T05:23:41.739Z,7.90
2018-10-12T05:26:09.920Z,10.20
2018-10-12T05:28:38.632Z,8.50
2018-10-12T05:31:07.120Z,9.93
2018-10-12T05:33:35.381Z,9.17
2018-10-12T05:36:03.675Z,9.27
2018-10-12T05:38:32.745Z,8.40
2018-10-12T05:41:01.115Z,8.10
2018-10-12T05:43:29.597Z,7.73
2018-10-12T05:45:57.853Z,7.60
2018-10-12T05:48:37.468Z,7.90
2018-10-12T05:51:06.265Z,7.83
2018-10-12T05:53:35.062Z,7.70
2018-10-12T05:56:03.434Z,8.50
2018-10-12T05:58:31.838Z,8.20
2018-10-12T06:01:00.124Z,9.18
2018-10-12T06:03:28.364Z,11.00
2018-10-12T06:05:56.577Z,10.23
2018-10-12T06:08:24.819Z,11.40
2018-10-12T06:10:53.467Z,8.98
2018-10-12T06:13:21.655Z,8.47
2018-10-12T06:15:49.815Z,10.17
2018-10-12T06:18:18.110Z,8.37
2018-10-12T06:20:46.372Z,7.13
2018-10-12T06:23:14.720Z,8.20
2018-10-12T06:25:42.963Z,8.87
2018-10-12T06:28:11.166Z,7.80
2018-10-12T06:30:39.526Z,9.57
2018-10-12T06:33:07.999Z,7.85
2018-10-12T06:35:36.198Z,8.80
2018-10-12T06:38:04.382Z,8.97
2018-10-12T06:40:33.304Z,7.27
2018-10-12T06:43:01.719Z,6.30
2018-10-12T06:45:29.884Z,6.97
2018-10-12T06:47:58.204Z,7.17
2018-10-12T06:50:26.491Z,8.50
2018-10-12T06:52:54.748Z,8.80
2018-10-12T06:55:22.931Z,8.57
2018-10-12T06:57:51.209Z,9.83
2018-10-12T07:00:19.379Z,7.73
2018-10-12T07:02:47.544Z,8.50
2018-10-12T07:05:15.684Z,8.60
2018-10-12T07:07:44.084Z,8.33
2018-10-12T07:10:12.292Z,8.70
2018-10-12T07:12:40.462Z,8.60
2018-10-12T07:15:09.078Z,9.45
2018-10-12T07:17:37.308Z,9.60
2018-10-12T07:20:05.483Z,7.37
2018-10-12T07:22:33.702Z,9.73
2018-10-12T07:25:01.869Z,9.10
2018-10-12T07:27:30.019Z,7.40
2018-10-12T07:29:58.208Z,7.10
2018-10-12T07:32:26.373Z,7.07
2018-10-12T07:34:55.437Z,7.72
2018-10-12T07:37:23.801Z,8.90
2018-10-12T07:39:51.903Z,9.57
2018-10-12T07:42:20.170Z,8.97
2018-10-12T07:44:48.296Z,8.70
2018-10-12T07:47:16.621Z,8.28
2018-10-12T07:49:44.764Z,7.93
2018-10-12T07:52:13.101Z,8.90
2018-10-12T07:54:41.383Z,9.33
2018-10-12T07:57:10.511Z,7.73
2018-10-12T07:59:39.192Z,8.30
2018-10-12T08:02:08.092Z,8.77
2018-10-12T08:04:36.483Z,7.40
2018-10-12T08:07:04.647Z,8.33
2018-10-12T08:09:32.940Z,7.50
2018-10-12T08:12:01.204Z,6.03
2018-10-12T08:14:29.439Z,6.50
2018-10-12T08:16:58.012Z,7.13
2018-10-12T08:19:26.515Z,7.70
2018-10-12T08:21:54.778Z,8.40
2018-10-12T08:24:22.939Z,8.13
2018-10-12T08:26:51.448Z,6.10
2018-10-12T08:29:20.137Z,5.23
2018-10-12T08:31:48.305Z,5.77
2018-10-12T08:34:16.702Z,5.00
2018-10-12T08:36:45.016Z,5.30
2018-10-12T08:39:13.753Z,5.03
2018-10-12T08:41:41.940Z,5.37
2018-10-12T08:44:10.592Z,5.50
2018-10-12T08:46:38.719Z,5.27
2018-10-12T08:49:06.884Z,6.00
2018-10-12T08:51:35.696Z,4.70
2018-10-12T08:54:04.021Z,5.93
2018-10-12T08:56:32.229Z,5.72
2018-10-12T08:59:00.785Z,5.87
2018-10-12T09:01:29.119Z,5.27
2018-10-12T09:03:57.756Z,5.10
2018-10-12T09:06:25.907Z,4.70
2018-10-12T09:08:54.312Z,5.03
2018-10-12T09:11:22.595Z,5.47
2018-10-12T09:13:50.764Z,6.37
2018-10-12T09:16:19.783Z,5.77
2018-10-12T09:18:48.129Z,5.00
2018-10-12T09:21:16.568Z,5.73
2018-10-12T09:23:45.009Z,6.70
2018-10-12T09:26:13.514Z,7.60
2018-10-12T09:28:41.954Z,5.80
2018-10-12T09:31:10.272Z,4.97
2018-10-12T09:33:38.411Z,6.20
2018-10-12T09:36:06.786Z,5.23
2018-10-12T09:38:35.423Z,4.70
2018-10-12T09:41:03.848Z,5.43
2018-10-12T09:43:32.256Z,5.27
2018-10-12T09:46:00.533Z,5.03
2018-10-12T09:48:28.945Z,4.33
2018-10-12T09:50:57.262Z,4.33
2018-10-12T09:53:25.997Z,3.67
2018-10-12T09:55:54.457Z,3.80
2018-10-12T09:58:22.823Z,4.03
2018-10-12T10:00:56.528Z,4.30
2018-10-12T10:03:30.224Z,5.47
2018-10-12T10:05:59.477Z,4.05
2018-10-12T10:08:28.096Z,4.00
2018-10-12T10:10:56.260Z,3.33
2018-10-12T10:13:24.583Z,3.87
2018-10-12T10:15:53.045Z,3.20
2018-10-12T10:18:21.365Z,4.03
2018-10-12T10:20:49.783Z,2.40
2018-10-12T10:23:18.560Z,2.43
2018-10-12T10:25:46.694Z,2.80
2018-10-12T10:28:15.118Z,2.53
2018-10-12T10:30:43.784Z,2.70
2018-10-12T10:33:12.184Z,2.53
2018-10-12T10:35:40.560Z,2.20
2018-10-12T10:38:08.983Z,2.50
2018-10-12T10:40:37.249Z,2.00
2018-10-12T10:43:05.644Z,1.90
2018-10-12T10:45:34.164Z,2.13
2018-10-12T10:48:02.551Z,2.00
2018-10-12T10:50:30.925Z,2.37
2018-10-12T10:53:06.124Z,2.03
2018-10-12T10:55:34.508Z,2.13
2018-10-12T10:58:02.948Z,1.70
2018-10-12T11:00:31.376Z,2.13
2018-10-12T11:02:59.829Z,2.07
2018-10-12T11:05:28.089Z,2.07
2018-10-12T11:07:56.538Z,2.10
2018-10-12T11:10:24.736Z,2.27
2018-10-12T11:12:53.276Z,1.70
2018-10-12T11:15:21.632Z,1.90
2018-10-12T11:17:50.028Z,1.70
2018-10-12T11:20:18.287Z,1.98
2018-10-12T11:22:46.751Z,1.90
2018-10-12T11:25:15.131Z,2.60
2018-10-12T11:27:43.976Z,1.77
2018-10-12T11:30:12.397Z,2.40
2018-10-12T11:32:40.869Z,1.85
2018-10-12T11:35:09.255Z,2.00
2018-10-12T11:37:37.481Z,1.50
2018-10-12T11:40:05.728Z,1.60
2018-10-12T11:42:45.350Z,1.73
2018-10-12T11:45:13.682Z,2.00
2018-10-12T11:47:41.928Z,1.60
2018-10-12T11:50:10.418Z,2.00
2018-10-12T11:52:38.830Z,1.60
2018-10-12T11:55:07.261Z,1.97
2018-10-12T11:57:35.297Z,1.73
2018-10-12T12:00:03.845Z,2.23
2018-10-12T12:02:32.926Z,1.67
2018-10-12T12:05:01.717Z,1.40
2018-10-12T12:07:30.249Z,1.50
2018-10-12T12:09:58.658Z,1.40
2018-10-12T12:12:27.072Z,1.60
2018-10-12T12:14:55.514Z,1.87
2018-10-12T12:17:23.891Z,1.80
2018-10-12T12:19:52.468Z,1.90
2018-10-12T12:22:20.939Z,1.90
2018-10-12T12:24:49.072Z,1.52
2018-10-12T12:27:17.509Z,1.60
2018-10-12T12:29:45.974Z,1.60
2018-10-12T12:32:14.445Z,1.70
2018-10-12T12:34:43.081Z,1.77
2018-10-12T12:37:11.390Z,1.70
2018-10-12T12:39:39.825Z,1.50
2018-10-12T12:42:08.347Z,1.47
2018-10-12T12:44:36.736Z,1.33
2018-10-12T12:47:05.145Z,1.80
2018-10-12T12:49:34.300Z,1.60
2018-10-12T12:52:02.640Z,1.47
2018-10-12T12:54:31.162Z,1.30
2018-10-12T12:56:59.705Z,1.40
2018-10-12T12:59:28.176Z,1.60
2018-10-12T13:01:56.610Z,1.70
2018-10-12T13:04:25.064Z,1.67
2018-10-12T13:06:53.259Z,1.40
2018-10-12T13:09:21.653Z,1.35
2018-10-12T13:11:49.953Z,1.70
2018-10-12T13:14:18.411Z,1.50
2018-10-12T13:16:46.850Z,1.97
2018-10-12T13:19:15.313Z,1.43
2018-10-12T13:21:43.547Z,1.30
2018-10-12T13:24:12.066Z,1.40
2018-10-12T13:26:40.368Z,1.40
2018-10-12T13:29:08.708Z,1.37
2018-10-12T13:31:37.121Z,1.27
2018-10-12T13:34:05.604Z,1.35
2018-10-12T13:36:34.140Z,1.60
2018-10-12T13:39:02.641Z,1.17
2018-10-12T13:41:31.209Z,1.40
2018-10-12T13:43:59.813Z,1.20
2018-10-12T13:46:28.283Z,1.87
2018-10-12T13:48:56.701Z,1.10
2018-10-12T13:51:25.081Z,1.77
2018-10-12T13:53:53.463Z,1.40
2018-10-12T13:56:21.719Z,1.43
2018-10-12T13:58:50.291Z,0.93
2018-10-12T14:01:18.606Z,1.37
2018-10-12T14:03:47.081Z,1.20
2018-10-12T14:06:15.490Z,1.10
2018-10-12T14:08:43.934Z,1.20
2018-10-12T14:11:12.441Z,1.20
2018-10-12T14:13:40.960Z,1.10
2018-10-12T14:16:09.493Z,1.03
2018-10-12T14:18:37.985Z,1.50
2018-10-12T14:21:06.152Z,1.00
2018-10-12T14:23:34.736Z,1.40
2018-10-12T14:26:03.249Z,1.60
2018-10-12T14:28:31.679Z,1.35
2018-10-12T14:31:00.349Z,1.60
2018-10-12T14:33:28.774Z,1.47
2018-10-12T14:35:57.173Z,1.03
2018-10-12T14:38:25.566Z,1.30
2018-10-12T14:40:54.005Z,1.40
2018-10-12T14:43:22.501Z,1.40
2018-10-12T14:45:50.942Z,1.10
2018-10-12T14:48:19.296Z,1.32
2018-10-12T14:50:47.657Z,1.10
2018-10-12T14:53:15.967Z,1.30
2018-10-12T14:55:44.388Z,1.20
2018-10-12T14:58:12.793Z,1.20
2018-10-12T15:00:41.292Z,1.60
2018-10-12T15:03:09.828Z,1.40
2018-10-12T15:05:39.365Z,1.42
2018-10-12T15:08:07.893Z,0.90
2018-10-12T15:10:36.421Z,1.37
2018-10-12T15:13:05.009Z,1.10
2018-10-12T15:15:33.447Z,1.20
2018-10-12T15:18:01.724Z,1.47
2018-10-12T15:20:30.261Z,1.10
2018-10-12T15:22:58.686Z,1.20
2018-10-12T15:25:27.219Z,1.43
2018-10-12T15:27:55.585Z,1.27
2018-10-12T15:30:24.063Z,1.35
2018-10-12T15:32:52.385Z,1.30
2018-10-12T15:35:20.912Z,1.30
2018-10-12T15:37:49.424Z,1.47
2018-10-12T15:40:17.857Z,1.50
2018-10-12T15:42:46.236Z,1.70
2018-10-12T15:45:14.709Z,1.10
2018-10-12T15:47:43.153Z,1.10
2018-10-12T15:50:11.656Z,1.50
2018-10-12T15:52:41.007Z,1.45
2018-10-12T15:55:09.432Z,1.53
2018-10-12T15:57:37.833Z,1.30
2018-10-12T16:00:06.356Z,1.00
2018-10-12T16:02:34.876Z,1.20
2018-10-12T16:05:03.455Z,1.07
2018-10-12T16:07:31.870Z,1.10
2018-10-12T16:10:00.261Z,1.20
2018-10-12T16:12:28.516Z,1.10
2018-10-12T16:14:56.760Z,1.07
2018-10-12T16:17:25.005Z,1.30
2018-10-12T16:19:53.473Z,1.33
2018-10-12T16:22:21.818Z,1.33
2018-10-12T16:25:01.368Z,1.10
2018-10-12T16:27:29.835Z,1.30
2018-10-12T16:29:58.112Z,1.67
2018-10-12T16:32:26.343Z,1.50
2018-10-12T16:34:54.966Z,1.30
2018-10-12T16:37:23.772Z,1.80
2018-10-12T16:39:52.123Z,1.47
2018-10-12T16:42:20.265Z,1.40
2018-10-12T16:44:48.685Z,1.13
2018-10-12T16:47:17.100Z,2.22
2018-10-12T16:49:45.516Z,1.30
2018-10-12T16:52:13.938Z,1.20
2018-10-12T16:54:42.240Z,1.32
2018-10-12T16:57:10.443Z,1.30
2018-10-12T16:59:38.769Z,1.30
2018-10-12T17:02:07.087Z,1.60
2018-10-12T17:04:35.534Z,1.60
2018-10-12T17:07:03.956Z,1.50
2018-10-12T17:09:33.243Z,1.23
2018-10-12T17:12:01.496Z,1.30
2018-10-12T17:14:29.832Z,1.07
2018-10-12T17:16:58.140Z,1.52
2018-10-12T17:19:26.550Z,1.10
2018-10-12T17:21:54.944Z,1.63
2018-10-12T17:24:23.381Z,1.30
2018-10-12T17:26:51.659Z,1.30
2018-10-12T17:29:23.948Z,1.20
2018-10-12T17:31:52.457Z,1.53
2018-10-12T17:34:20.919Z,1.60
2018-10-12T17:36:49.232Z,1.80
2018-10-12T17:39:17.351Z,1.40
2018-10-12T17:41:45.710Z,1.23
2018-10-12T17:44:14.102Z,1.70
2018-10-12T17:46:42.540Z,1.47
2018-10-12T17:49:10.955Z,1.23
2018-10-12T17:51:39.274Z,1.40
2018-10-12T17:54:07.673Z,1.70
2018-10-12T17:56:36.069Z,1.27
2018-10-12T17:59:04.640Z,1.47
2018-10-12T18:01:33.132Z,2.27
2018-10-12T18:04:01.648Z,1.90
2018-10-12T18:06:30.365Z,1.77
2018-10-12T18:08:58.770Z,1.80
2018-10-12T18:11:27.189Z,2.50
2018-10-12T18:13:55.613Z,2.47
2018-10-12T18:16:24.038Z,2.00
2018-10-12T18:18:52.455Z,2.13
2018-10-12T18:21:20.741Z,1.77
2018-10-12T18:23:49.173Z,2.23
2018-10-12T18:26:17.564Z,1.87
2018-10-12T18:28:45.920Z,2.33
2018-10-12T18:31:14.337Z,1.60
2018-10-12T18:33:42.812Z,1.70
2018-10-12T18:36:11.339Z,1.70
2018-10-12T18:38:39.666Z,1.20
2018-10-12T18:41:08.177Z,1.40
2018-10-12T18:43:36.606Z,1.60
2018-10-12T18:46:05.077Z,2.70
2018-10-12T18:48:33.464Z,2.37
2018-10-12T18:51:01.817Z,1.87
2018-10-12T18:53:30.341Z,1.63
2018-10-12T18:55:58.563Z,1.50
2018-10-12T18:58:27.027Z,1.70
2018-10-12T19:00:55.239Z,2.30
2018-10-12T19:03:23.528Z,1.97
2018-10-12T19:05:52.845Z,1.90
2018-10-12T19:08:21.257Z,1.90
2018-10-12T19:10:49.873Z,1.50
2018-10-12T19:13:18.292Z,1.70
2018-10-12T19:15:46.703Z,2.20
2018-10-12T19:18:15.100Z,1.60
2018-10-12T19:20:43.559Z,1.70
2018-10-12T19:23:12.046Z,1.73
2018-10-12T19:25:40.287Z,2.25
2018-10-12T19:28:08.782Z,2.27
2018-10-12T19:30:37.083Z,1.97
2018-10-12T19:33:05.276Z,1.80
2018-10-12T19:35:33.659Z,2.47
2018-10-12T19:38:02.136Z,2.57
2018-10-12T19:40:30.517Z,3.20
2018-10-12T19:42:58.953Z,3.97
2018-10-12T19:45:27.494Z,4.27
2018-10-12T19:47:55.971Z,3.73
2018-10-12T19:50:24.399Z,3.83
2018-10-12T19:52:52.798Z,4.37
2018-10-12T19:55:21.838Z,3.85
2018-10-12T19:57:50.256Z,3.67
2018-10-12T20:00:18.605Z,4.17
2018-10-12T20:02:46.884Z,5.10
2018-10-12T20:05:15.272Z,4.70
2018-10-12T20:07:44.600Z,5.40
2018-10-12T20:10:13.069Z,3.80
2018-10-12T20:12:41.380Z,3.67
2018-10-12T20:15:09.664Z,4.53
2018-10-12T20:17:38.015Z,3.87
2018-10-12T20:20:06.119Z,3.43
2018-10-12T20:22:34.420Z,3.50
2018-10-12T20:25:02.769Z,3.10
2018-10-12T20:27:30.916Z,4.40
2018-10-12T20:29:59.264Z,3.43
2018-10-12T20:32:27.394Z,2.98
2018-10-12T20:34:55.689Z,3.10
2018-10-12T20:37:23.948Z,3.00
2018-10-12T20:39:53.265Z,2.65
2018-10-12T20:42:21.514Z,2.50
2018-10-12T20:44:49.792Z,2.80
2018-10-12T20:47:17.981Z,3.70
2018-10-12T20:49:46.171Z,3.73
2018-10-12T20:52:14.355Z,4.17
2018-10-12T20:54:42.517Z,3.60
2018-10-12T20:57:10.736Z,4.00
2018-10-12T20:59:39.123Z,3.67
2018-10-12T21:02:07.351Z,3.03
2018-10-12T21:04:35.508Z,3.80
2018-10-12T21:07:03.711Z,4.07
2018-10-12T21:09:32.187Z,3.23
2018-10-12T21:12:00.430Z,2.35
2018-10-12T21:14:28.647Z,2.43
2018-10-12T21:16:56.941Z,2.23
2018-10-12T21:19:25.292Z,3.43
2018-10-12T21:21:53.907Z,3.37
2018-10-12T21:24:22.131Z,3.70
2018-10-12T21:26:50.379Z,3.43
2018-10-12T21:29:18.699Z,4.37
2018-10-12T21:31:46.839Z,3.62
2018-10-12T21:34:15.039Z,4.00
2018-10-12T21:36:43.335Z,4.17
2018-10-12T21:39:11.742Z,3.73
2018-10-12T21:41:40.096Z,3.60
2018-10-12T21:44:08.313Z,4.37
2018-10-12T21:46:36.524Z,3.17
2018-10-12T21:49:04.698Z,3.30
2018-10-12T21:51:32.879Z,3.53
2018-10-12T21:54:01.040Z,3.70
2018-10-12T21:56:29.333Z,2.90
2018-10-12T21:58:57.709Z,2.60
2018-10-12T22:02:39.251Z,3.47
2018-10-12T22:05:07.570Z,3.97
2018-10-12T22:07:35.753Z,3.20
2018-10-12T22:10:04.140Z,2.97
2018-10-12T22:12:32.301Z,3.33
2018-10-12T22:15:00.496Z,3.10
2018-10-12T22:17:28.757Z,3.60
2018-10-12T22:19:56.888Z,3.62
2018-10-12T22:22:25.119Z,3.83
2018-10-12T22:24:53.342Z,3.13
2018-10-12T22:27:21.517Z,3.80
2018-10-12T22:29:49.816Z,5.83
2018-10-12T22:32:18.007Z,4.10
2018-10-12T22:34:46.156Z,3.15
2018-10-12T22:37:14.301Z,3.45
2018-10-12T22:39:43.233Z,3.08
2018-10-12T22:42:12.524Z,3.17
2018-10-12T22:44:40.859Z,3.30
2018-10-12T22:47:09.707Z,3.53
2018-10-12T22:49:37.832Z,3.80
2018-10-12T22:52:06.224Z,3.87
2018-10-12T22:54:34.464Z,3.60
2018-10-12T22:57:02.691Z,2.90
2018-10-12T22:59:31.059Z,2.98
2018-10-12T23:01:59.284Z,3.00
2018-10-12T23:04:27.608Z,3.70
2018-10-12T23:06:56.424Z,3.72
2018-10-12T23:09:24.752Z,3.90
2018-10-12T23:11:52.908Z,4.60
2018-10-12T23:14:21.058Z,4.07
2018-10-12T23:16:49.460Z,4.25
2018-10-12T23:19:17.880Z,4.07
2018-10-12T23:21:46.015Z,4.43
2018-10-12T23:24:14.181Z,3.93
2018-10-12T23:26:42.379Z,4.40
2018-10-12T23:29:10.512Z,3.30
2018-10-12T23:31:38.731Z,4.33
2018-10-12T23:34:08.224Z,4.50
2018-10-12T23:36:36.434Z,4.20
2018-10-12T23:39:06.692Z,4.13
2018-10-12T23:41:35.098Z,4.75
2018-10-12T23:44:03.280Z,3.67
2018-10-12T23:46:31.481Z,3.42
2018-10-12T23:48:59.743Z,3.60
2018-10-12T23:51:28.220Z,3.60
2018-10-12T23:53:57.449Z,5.78
2018-10-12T23:56:25.592Z,4.97
2018-10-12T23:58:53.823Z,5.00
